Time;durP1;ratioP1;P1;durP2;ratioP2;P2;SDS_P1;SDS_P2;PMS_P1;PMS_P2;Temp;Humidity;BMP_temperature;BMP_pressure;BME280_temperature;BME280_humidity;BME280_pressure;Samples;Min_cycle;Max_cycle;Signal;HPM_P1;HPM_P2
2021/05/18 00:02:41;;;;;;;4.40;2.80;;;;;15.80;100808.00;;;;5029112;28;20417;-79
2021/05/18 00:05:10;;;;;;;4.57;2.50;;;;;15.80;100809.00;;;;5017635;28;20197;-79
2021/05/18 00:16:37;;;;;;;5.97;3.30;;;;;15.70;100816.00;;;;5011305;28;20251;-79
2021/05/18 00:19:22;;;;;;;5.20;2.70;;;;;15.70;100811.00;;;;5010526;28;20582;-79
2021/05/18 00:24:53;;;;;;;4.35;2.85;;;;;15.60;100809.00;;;;5021044;28;20307;-79
2021/05/18 00:27:57;;;;;;;7.38;3.15;;;;;15.40;100809.00;;;;5026267;28;20248;-79
2021/05/18 00:36:17;;;;;;;5.95;2.67;;;;;15.40;100802.00;;;;5023644;28;20255;-78
2021/05/18 00:39:02;;;;;;;4.93;3.00;;;;;15.40;100815.00;;;;5027245;28;20246;-79
2021/05/18 00:41:29;;;;;;;3.55;2.25;;;;;15.40;100817.00;;;;5025251;28;20222;-79
2021/05/18 00:44:15;;;;;;;7.50;3.03;;;;;15.20;100813.00;;;;5027929;28;20196;-78
2021/05/18 00:47:01;;;;;;;4.20;2.60;;;;;15.20;100817.00;;;;5019859;28;20232;-78
2021/05/18 00:52:13;;;;;;;3.88;2.50;;;;;15.20;100811.00;;;;5015957;28;20659;-78
2021/05/18 01:00:51;;;;;;;4.68;2.58;;;;;15.20;100816.00;;;;5013784;28;20329;-79
2021/05/18 01:08:50;;;;;;;3.92;2.30;;;;;15.30;100820.00;;;;5014023;28;20250;-78
2021/05/18 01:11:20;;;;;;;5.22;3.15;;;;;15.30;100822.00;;;;5015921;28;20212;-78
2021/05/18 01:13:47;;;;;;;6.35;3.05;;;;;15.30;100825.00;;;;5014983;28;20197;-78
2021/05/18 01:16:33;;;;;;;3.63;2.42;;;;;15.30;100823.00;;;;5027829;28;20211;-78
2021/05/18 01:19:00;;;;;;;4.88;2.53;;;;;15.30;100819.00;;;;5008161;28;20205;-79
2021/05/18 01:21:46;;;;;;;4.93;2.70;;;;;15.20;100825.00;;;;5024866;28;20227;-79
2021/05/18 01:24:50;;;;;;;4.85;2.95;;;;;15.20;100825.00;;;;5026292;28;20653;-80
2021/05/18 01:27:18;;;;;;;3.92;2.70;;;;;15.30;100826.00;;;;5015133;28;20196;-78
2021/05/18 01:29:44;;;;;;;5.43;2.92;;;;;15.40;100828.00;;;;5022372;28;20208;-80
2021/05/18 01:32:49;;;;;;;5.65;3.15;;;;;15.30;100822.00;;;;5013670;28;20224;-79
2021/05/18 01:35:16;;;;;;;4.55;2.88;;;;;15.40;100836.00;;;;5017464;28;20200;-78
2021/05/18 01:37:44;;;;;;;7.03;3.13;;;;;15.40;100831.00;;;;5020236;28;20192;-78
2021/05/18 01:46:03;;;;;;;5.75;3.25;;;;;15.50;100826.00;;;;5021376;28;20659;-80
2021/05/18 01:48:35;;;;;;;4.10;2.72;;;;;15.50;100824.00;;;;5028922;28;20203;-78
2021/05/18 01:51:02;;;;;;;4.28;3.20;;;;;15.50;100830.00;;;;5027753;28;20254;-79
2021/05/18 01:53:29;;;;;;;4.18;2.65;;;;;15.50;100824.00;;;;5023448;28;20192;-79
2021/05/18 01:56:30;;;;;;;5.32;3.40;;;;;15.50;100821.00;;;;5027915;28;20197;-78
2021/05/18 01:59:18;;;;;;;5.20;3.53;;;;;15.50;100821.00;;;;5011016;28;20192;-79
2021/05/18 02:07:56;;;;;;;5.35;3.28;;;;;15.60;100827.00;;;;5008846;28;20731;-78
2021/05/18 02:10:24;;;;;;;7.00;3.97;;;;;15.60;100828.00;;;;5023275;28;20316;-79
2021/05/18 02:15:43;;;;;;;7.13;3.70;;;;;15.70;100833.00;;;;5009669;28;20235;-79
2021/05/18 02:18:48;;;;;;;5.03;3.85;;;;;15.70;100830.00;;;;5012637;28;20200;-78
2021/05/18 02:21:30;;;;;;;5.22;3.63;;;;;15.70;100831.00;;;;5026924;28;20310;-79
2021/05/18 02:30:07;;;;;;;6.20;3.70;;;;;15.70;100839.00;;;;5015462;28;20207;-79
2021/05/18 02:33:11;;;;;;;7.68;4.20;;;;;15.70;100827.00;;;;5008924;28;20212;-79
2021/05/18 02:35:38;;;;;;;6.28;3.67;;;;;15.80;100831.00;;;;5020401;28;20201;-79
2021/05/18 02:38:42;;;;;;;5.95;4.18;;;;;15.70;100832.00;;;;5025415;28;20200;-79
2021/05/18 02:44:19;;;;;;;5.43;3.53;;;;;15.70;100829.00;;;;5020399;28;20215;-78
2021/05/18 02:53:32;;;;;;;7.25;3.80;;;;;15.80;100829.00;;;;5012678;28;20216;-79
2021/05/18 02:56:41;;;;;;;5.53;3.72;;;;;15.80;100837.00;;;;5012770;28;20667;-77
2021/05/18 03:04:58;;;;;;;5.38;3.50;;;;;15.90;100836.00;;;;5022160;28;20216;-80
2021/05/18 03:07:26;;;;;;;5.30;3.78;;;;;16.00;100835.00;;;;5020277;28;20242;-80
2021/05/18 03:12:56;;;;;;;9.52;4.22;;;;;15.90;100830.00;;;;5008105;28;20191;-79
2021/05/18 03:21:31;;;;;;;4.32;3.55;;;;;15.90;100832.00;;;;5029106;28;20254;-79
2021/05/18 03:23:58;;;;;;;7.30;3.70;;;;;16.10;100833.00;;;;5027534;28;20242;-78
2021/05/18 03:26:26;;;;;;;9.15;4.40;;;;;16.10;100839.00;;;;5010318;28;20586;-79
2021/05/18 03:28:58;;;;;;;6.13;3.85;;;;;16.10;100848.00;;;;5027599;28;20200;-79
2021/05/18 03:34:30;;;;;;;8.63;4.20;;;;;16.10;100847.00;;;;5018169;28;20254;-79
2021/05/18 03:39:44;;;;;;;7.22;3.78;;;;;16.10;100855.00;;;;5029563;28;20208;-79
2021/05/18 03:42:14;;;;;;;5.43;4.03;;;;;16.20;100853.00;;;;5012974;28;20699;-79
2021/05/18 03:44:56;;;;;;;4.47;3.83;;;;;16.20;100852.00;;;;5023605;28;20203;-79
2021/05/18 03:53:36;;;;;;;5.70;3.97;;;;;16.20;100856.00;;;;5028953;28;20346;-79
2021/05/18 04:02:52;;;;;;;5.40;3.40;;;;;16.20;100860.00;;;;5021765;28;20303;-79
2021/05/18 04:12:42;;;;;;;7.13;3.97;;;;;16.20;100870.00;;;;5026602;28;20210;-79
2021/05/18 04:18:01;;;;;;;7.13;4.60;;;;;16.40;100865.00;;;;5016242;28;20783;-79
2021/05/18 04:23:42;;;;;;;6.72;4.18;;;;;16.40;100870.00;;;;5022960;28;20239;-80
2021/05/18 04:41:14;;;;;;;6.15;4.55;;;;;16.50;100882.00;;;;5024005;28;20203;-80
2021/05/18 04:49:43;;;;;;;8.77;4.70;;;;;16.70;100886.00;;;;5016456;28;20669;-80
2021/05/18 04:52:55;;;;;;;6.30;4.22;;;;;16.60;100897.00;;;;5028096;28;20681;-78
2021/05/18 05:01:13;;;;;;;6.82;4.72;;;;;16.80;100888.00;;;;5012550;28;20204;-80
2021/05/18 05:03:57;;;;;;;7.68;5.45;;;;;16.80;100897.00;;;;5010085;28;20193;-80
2021/05/18 05:06:29;;;;;;;7.20;4.93;;;;;16.80;100898.00;;;;5009727;28;20288;-80
2021/05/18 05:09:04;;;;;;;9.73;6.35;;;;;16.90;100898.00;;;;5016936;28;20211;-79
2021/05/18 05:15:12;;;;;;;6.93;5.13;;;;;16.80;100900.00;;;;5015669;28;20343;-77
2021/05/18 05:17:39;;;;;;;12.23;5.22;;;;;17.00;100901.00;;;;5012169;28;20192;-77
2021/05/18 05:20:24;;;;;;;8.73;5.72;;;;;16.90;100905.00;;;;5016347;28;20200;-77
2021/05/18 05:23:10;;;;;;;10.15;5.55;;;;;17.00;100909.00;;;;5026001;28;20234;-78
2021/05/18 05:25:36;;;;;;;6.97;5.35;;;;;17.10;100913.00;;;;5018919;28;20196;-79
2021/05/18 05:28:04;;;;;;;8.52;7.15;;;;;17.10;100910.00;;;;5018373;28;20197;-78
2021/05/18 05:30:30;;;;;;;8.25;5.65;;;;;17.10;100909.00;;;;5026917;28;20223;-76
2021/05/18 05:36:02;;;;;;;6.75;4.50;;;;;17.20;100917.00;;;;5019076;28;20250;-78
2021/05/18 05:41:32;;;;;;;8.43;4.82;;;;;17.30;100917.00;;;;5027633;28;20310;-80
2021/05/18 05:44:17;;;;;;;12.38;6.93;;;;;17.30;100923.00;;;;5008533;28;20216;-80
2021/05/18 05:47:03;;;;;;;7.95;5.97;;;;;17.40;100923.00;;;;5022764;28;20232;-80
2021/05/18 05:49:49;;;;;;;7.88;5.40;;;;;17.40;100922.00;;;;5022559;28;20201;-80
2021/05/18 05:58:04;;;;;;;7.18;5.22;;;;;17.60;100925.00;;;;5027044;28;20223;-77
2021/05/18 06:00:31;;;;;;;8.60;5.75;;;;;17.60;100932.00;;;;5024009;28;20689;-79
2021/05/18 06:06:21;;;;;;;8.35;4.93;;;;;17.60;100934.00;;;;5028851;28;20214;-79
2021/05/18 06:08:48;;;;;;;6.38;4.97;;;;;17.70;100943.00;;;;5028155;28;20662;-78
2021/05/18 06:11:17;;;;;;;6.70;4.55;;;;;17.70;100942.00;;;;5027902;28;20200;-78
2021/05/18 06:14:04;;;;;;;6.32;5.03;;;;;17.70;100950.00;;;;5028306;28;20528;-79
2021/05/18 06:43:27;;;;;;;6.95;4.68;;;;;18.00;100961.00;;;;5008198;28;20360;-79
2021/05/18 06:46:08;;;;;;;6.85;5.15;;;;;18.00;100954.00;;;;5007834;28;20588;-80
2021/05/18 06:48:57;;;;;;;7.38;5.07;;;;;18.10;100967.00;;;;5008595;28;20232;-79
2021/05/18 06:51:24;;;;;;;9.02;5.32;;;;;18.10;100978.00;;;;5023795;28;20213;-80
2021/05/18 06:56:59;;;;;;;6.50;5.32;;;;;18.30;100973.00;;;;5032028;28;20257;-80
2021/05/18 07:03:10;;;;;;;8.40;6.20;;;;;18.30;100978.00;;;;5032159;28;20230;-79
2021/05/18 07:06:01;;;;;;;6.47;5.22;;;;;18.40;100998.00;;;;5032103;28;20204;-80
2021/05/18 07:11:13;;;;;;;10.20;5.80;;;;;18.60;101007.00;;;;5010344;28;20212;-80
2021/05/18 07:13:59;;;;;;;10.02;6.22;;;;;18.60;100998.00;;;;5011524;28;20294;-80
2021/05/18 07:16:44;;;;;;;9.40;6.28;;;;;18.70;101002.00;;;;5011992;28;20243;-80
2021/05/18 07:19:29;;;;;;;7.53;5.72;;;;;18.80;101006.00;;;;5018336;28;20203;-80
2021/05/18 07:27:26;;;;;;;8.77;5.90;;;;;19.00;101016.00;;;;5011307;28;20212;-80
2021/05/18 07:29:53;;;;;;;9.00;5.68;;;;;19.10;101014.00;;;;5011220;28;20208;-81
2021/05/18 07:32:20;;;;;;;9.98;7.03;;;;;19.20;101021.00;;;;5011271;28;20197;-80
2021/05/18 07:34:48;;;;;;;7.13;5.93;;;;;19.30;101013.00;;;;5011399;28;20205;-80
2021/05/18 07:37:33;;;;;;;7.93;5.78;;;;;19.30;101014.00;;;;5011690;28;20229;-81
2021/05/18 07:40:19;;;;;;;10.73;6.13;;;;;19.40;101023.00;;;;5011597;28;20578;-80
2021/05/18 07:45:32;;;;;;;8.18;5.18;;;;;19.60;101020.00;;;;5011435;28;20684;-81
2021/05/18 07:48:22;;;;;;;6.97;5.30;;;;;19.60;101017.00;;;;5011451;28;20211;-81
2021/05/18 08:00:04;;;;;;;8.48;4.47;;;;;19.90;101026.00;;;;5024231;28;20214;-80
2021/05/18 08:05:20;;;;;;;5.43;4.30;;;;;20.00;101038.00;;;;5029132;28;20206;-81
2021/05/18 08:08:24;;;;;;;5.75;3.95;;;;;19.80;101037.00;;;;5030519;28;20207;-80
2021/05/18 08:10:52;;;;;;;4.80;4.30;;;;;19.90;101041.00;;;;5030149;28;20674;-81
2021/05/18 08:22:52;;;;;;;6.30;4.40;;;;;20.10;101040.00;;;;5004259;28;20220;-81
2021/05/18 09:33:52;;;;;;;5.10;3.58;;;;;20.70;101055.00;;;;5028778;28;20203;-78
2021/05/18 10:36:03;;;;;;;1.90;1.55;;;;;22.50;101059.00;;;;5012786;28;20197;-78
2021/05/18 10:38:34;;;;;;;2.35;1.83;;;;;22.60;101059.00;;;;5013065;28;20204;-78
2021/05/18 10:41:12;;;;;;;1.95;1.65;;;;;22.60;101056.00;;;;5011948;28;20284;-78
2021/05/18 10:43:59;;;;;;;2.25;1.60;;;;;22.70;101065.00;;;;5012390;28;20567;-79
2021/05/18 10:46:48;;;;;;;2.70;1.70;;;;;22.60;101060.00;;;;5011969;28;20235;-78
2021/05/18 10:49:30;;;;;;;4.05;1.85;;;;;22.70;101071.00;;;;5025458;28;20205;-79
2021/05/18 10:51:59;;;;;;;2.38;1.70;;;;;22.70;101068.00;;;;5032198;28;20632;-79
2021/05/18 10:54:31;;;;;;;3.05;1.90;;;;;22.60;101089.00;;;;5026016;28;20201;-79
2021/05/18 10:57:12;;;;;;;2.60;1.80;;;;;22.50;101092.00;;;;5026809;28;20250;-79
2021/05/18 10:59:41;;;;;;;2.33;1.70;;;;;22.30;101102.00;;;;5031766;28;20231;-79
2021/05/18 11:02:29;;;;;;;2.78;1.55;;;;;22.20;101103.00;;;;5031325;28;20707;-79
2021/05/18 11:05:17;;;;;;;2.60;1.15;;;;;22.00;101104.00;;;;5029952;28;20208;-78
2021/05/18 11:07:45;;;;;;;1.67;1.13;;;;;21.80;101096.00;;;;5011705;28;20205;-79
2021/05/18 11:10:14;;;;;;;2.25;1.05;;;;;21.70;101086.00;;;;5011779;28;20205;-78
2021/05/18 11:12:42;;;;;;;2.03;0.98;;;;;21.70;101086.00;;;;5011210;28;20204;-78
2021/05/18 11:18:15;;;;;;;1.65;1.27;;;;;21.70;101080.00;;;;5029046;28;20299;-78
2021/05/18 11:20:56;;;;;;;3.08;1.45;;;;;21.90;101080.00;;;;5030892;28;20204;-78
2021/05/18 11:23:41;;;;;;;1.90;1.48;;;;;21.90;101085.00;;;;5030084;28;21053;-79
2021/05/18 11:26:09;;;;;;;1.90;1.40;;;;;22.00;101083.00;;;;5031495;28;20210;-78
2021/05/18 11:28:37;;;;;;;2.85;1.95;;;;;22.00;101083.00;;;;5031652;28;20262;-78
2021/05/18 11:31:24;;;;;;;2.05;1.55;;;;;22.10;101090.00;;;;5031300;28;20529;-78
2021/05/18 11:34:28;;;;;;;2.33;1.83;;;;;22.10;101085.00;;;;5030953;28;20704;-79
2021/05/18 11:36:57;;;;;;;3.33;1.25;;;;;22.20;101079.00;;;;5030212;28;20729;-79
2021/05/18 11:39:28;;;;;;;1.45;1.23;;;;;22.30;101085.00;;;;5029490;28;20212;-78
2021/05/18 11:44:42;;;;;;;1.50;1.15;;;;;22.50;101094.00;;;;5031143;28;20323;-79
2021/05/18 11:47:28;;;;;;;1.33;1.15;;;;;22.40;101090.00;;;;5029670;28;20228;-79
2021/05/18 11:56:02;;;;;;;1.60;1.08;;;;;22.50;101093.00;;;;5030551;28;20210;-78
2021/05/18 11:58:47;;;;;;;4.18;1.25;;;;;22.60;101087.00;;;;5011327;28;20209;-79
2021/05/18 12:01:15;;;;;;;3.83;1.10;;;;;22.70;101093.00;;;;5010438;28;20597;-79
2021/05/18 12:03:41;;;;;;;1.65;0.90;;;;;22.70;101090.00;;;;5010844;28;20225;-78
2021/05/18 12:08:58;;;;;;;2.92;1.33;;;;;22.80;101091.00;;;;5010723;28;20212;-80
2021/05/18 12:11:25;;;;;;;1.73;0.80;;;;;22.90;101093.00;;;;5010075;28;20270;-79
2021/05/18 12:17:23;;;;;;;2.00;1.08;;;;;22.90;101108.00;;;;5010641;28;20204;-77
2021/05/18 12:20:09;;;;;;;2.55;1.33;;;;;22.90;101110.00;;;;5028118;28;20204;-78
2021/05/18 12:22:54;;;;;;;3.25;1.30;;;;;22.80;101103.00;;;;5030088;28;20231;-77
2021/05/18 12:25:33;;;;;;;1.30;0.98;;;;;22.80;101101.00;;;;5030221;28;20290;-78
2021/05/18 12:28:25;;;;;;;2.85;1.50;;;;;22.90;101108.00;;;;5030439;28;20258;-77
2021/05/18 12:37:12;;;;;;;1.67;1.35;;;;;22.90;101109.00;;;;5029943;28;20234;-78
2021/05/18 12:39:42;;;;;;;1.20;1.08;;;;;22.90;101108.00;;;;5030057;28;20596;-78
2021/05/18 12:42:29;;;;;;;2.67;1.58;;;;;22.90;101114.00;;;;5029463;28;20644;-79
2021/05/18 12:44:59;;;;;;;1.77;1.25;;;;;22.90;101112.00;;;;5030086;28;20204;-78
2021/05/18 12:48:03;;;;;;;1.35;1.15;;;;;22.70;101116.00;;;;5022985;28;20687;-78
2021/05/18 12:50:56;;;;;;;2.30;1.20;;;;;22.70;101119.00;;;;5009843;28;20204;-79
2021/05/18 12:53:44;;;;;;;1.05;0.88;;;;;22.70;101111.00;;;;5009996;28;20738;-80
2021/05/18 13:02:08;;;;;;;1.20;1.10;;;;;22.90;101119.00;;;;5010010;28;20219;-78
2021/05/18 13:04:38;;;;;;;1.48;1.33;;;;;23.00;101116.00;;;;5009862;28;20712;-79
2021/05/18 13:07:14;;;;;;;1.90;1.48;;;;;23.10;101124.00;;;;5009564;28;20243;-79
2021/05/18 13:09:41;;;;;;;1.70;1.23;;;;;23.30;101118.00;;;;5009552;28;20201;-79
2021/05/18 13:12:12;;;;;;;1.77;1.13;;;;;23.30;101114.00;;;;5009807;28;20296;-79
2021/05/18 13:14:59;;;;;;;3.22;1.73;;;;;23.10;101134.00;;;;5017809;28;20235;-78
2021/05/18 13:20:44;;;;;;;3.47;1.38;;;;;23.10;101132.00;;;;5029042;28;20218;-77
2021/05/18 13:26:30;;;;;;;2.10;1.45;;;;;23.20;101125.00;;;;5008919;28;20685;-78
2021/05/18 13:32:21;;;;;;;1.65;1.27;;;;;23.10;101126.00;;;;5008499;28;20656;-79
2021/05/18 13:35:25;;;;;;;1.05;0.73;;;;;23.10;101122.00;;;;5008962;28;20610;-79
2021/05/18 13:40:55;;;;;;;1.45;0.98;;;;;23.40;101124.00;;;;5028089;28;20211;-77
2021/05/18 13:43:41;;;;;;;3.80;0.80;;;;;23.60;101128.00;;;;5027944;28;20406;-78
2021/05/18 13:46:26;;;;;;;0.90;0.77;;;;;23.80;101134.00;;;;5018418;28;20615;-79
2021/05/18 13:49:13;;;;;;;1.75;0.80;;;;;24.00;101136.00;;;;5027622;28;20558;-78
2021/05/18 13:51:59;;;;;;;0.98;0.60;;;;;24.60;101133.00;;;;5028392;28;20211;-79
2021/05/18 13:54:25;;;;;;;2.38;0.57;;;;;25.00;101138.00;;;;5023890;28;20197;-78
2021/05/18 13:57:11;;;;;;;2.97;0.88;;;;;25.20;101140.00;;;;5022107;28;20728;-79
2021/05/18 13:59:37;;;;;;;0.93;0.70;;;;;25.50;101139.00;;;;5028109;28;20215;-78
2021/05/18 14:02:04;;;;;;;0.98;0.63;;;;;25.70;101147.00;;;;5028001;28;20196;-79
2021/05/18 14:08:27;;;;;;;4.13;0.60;;;;;25.40;101151.00;;;;5028634;28;20211;-79
2021/05/18 14:16:28;;;;;;;0.95;0.82;;;;;25.50;101153.00;;;;5009291;28;20670;-79
2021/05/18 14:18:57;;;;;;;1.63;0.75;;;;;25.50;101152.00;;;;5027895;28;20200;-80
2021/05/18 14:21:26;;;;;;;0.95;0.80;;;;;25.40;101156.00;;;;5027822;28;20192;-78
2021/05/18 14:26:38;;;;;;;1.02;0.60;;;;;25.50;101156.00;;;;5028899;28;20198;-76
2021/05/18 14:29:42;;;;;;;1.00;0.45;;;;;25.30;101164.00;;;;5027488;28;20578;-78
2021/05/18 14:32:46;;;;;;;1.17;0.45;;;;;25.40;101164.00;;;;5028655;28;20204;-77
2021/05/18 14:35:32;;;;;;;2.20;0.40;;;;;25.40;101163.00;;;;5027832;28;20212;-77
2021/05/18 14:44:25;;;;;;;0.93;0.35;;;;;25.40;101169.00;;;;5027266;28;20293;-77
2021/05/18 14:46:57;;;;;;;0.40;0.30;;;;;25.30;101172.00;;;;5021147;28;20319;-78
2021/05/18 14:55:17;;;;;;;0.38;0.32;;;;;25.30;101164.00;;;;5028487;28;20206;-77
2021/05/18 14:58:02;;;;;;;2.95;0.50;;;;;25.60;101164.00;;;;5028196;28;20548;-77
2021/05/18 15:00:29;;;;;;;1.30;0.35;;;;;26.30;101168.00;;;;5028165;28;20721;-78
2021/05/18 15:02:56;;;;;;;0.73;0.43;;;;;27.10;101176.00;;;;5027474;28;20255;-78
2021/05/18 15:05:41;;;;;;;0.75;0.40;;;;;27.40;101179.00;;;;5028061;28;20227;-78
2021/05/18 15:08:09;;;;;;;2.03;0.68;;;;;27.50;101172.00;;;;5027668;28;20208;-78
2021/05/18 15:10:37;;;;;;;1.42;0.43;;;;;27.40;101169.00;;;;5027350;28;20211;-77
2021/05/18 15:13:22;;;;;;;0.85;0.40;;;;;27.50;101171.00;;;;5031017;28;20266;-78
2021/05/18 15:15:49;;;;;;;0.20;0.20;;;;;27.40;101176.00;;;;5031493;28;20674;-76
2021/05/18 15:21:20;;;;;;;4.10;0.60;;;;;26.90;101184.00;;;;5030660;28;20557;-77
2021/05/18 15:24:06;;;;;;;0.90;0.30;;;;;26.70;101191.00;;;;5031152;28;20228;-77
2021/05/18 15:29:37;;;;;;;0.60;0.30;;;;;26.50;101203.00;;;;5030497;28;20208;-78
2021/05/18 15:34:49;;;;;;;0.57;0.30;;;;;26.50;101194.00;;;;5030424;28;20303;-78
2021/05/18 15:37:54;;;;;;;1.50;0.47;;;;;26.30;101201.00;;;;5030083;28;20237;-77
2021/05/18 15:40:21;;;;;;;1.50;0.50;;;;;26.20;101193.00;;;;5030224;28;20200;-78
2021/05/18 15:43:25;;;;;;;1.85;0.50;;;;;26.00;101193.00;;;;5030131;28;20223;-77
2021/05/18 15:46:12;;;;;;;0.95;0.60;;;;;25.90;101212.00;;;;5029891;28;20220;-77
2021/05/18 15:48:57;;;;;;;0.85;0.30;;;;;26.00;101212.00;;;;5030646;28;21234;-77
2021/05/18 15:51:24;;;;;;;0.47;0.30;;;;;25.90;101205.00;;;;5030491;28;20211;-78
2021/05/18 15:54:09;;;;;;;0.63;0.40;;;;;26.00;101213.00;;;;5027994;28;20199;-78
2021/05/18 15:59:39;;;;;;;1.70;0.20;;;;;26.00;101214.00;;;;5010423;28;20221;-77
2021/05/18 16:05:11;;;;;;;1.48;0.30;;;;;25.60;101214.00;;;;5029724;28;20253;-78
2021/05/18 16:10:41;;;;;;;1.52;0.30;;;;;25.10;101216.00;;;;5030350;28;20406;-79
2021/05/18 16:13:08;;;;;;;0.68;0.30;;;;;24.80;101220.00;;;;5030163;28;20200;-78
2021/05/18 16:15:35;;;;;;;1.20;0.30;;;;;24.60;101221.00;;;;5031503;28;20201;-77
2021/05/18 16:18:02;;;;;;;1.40;0.40;;;;;24.40;101222.00;;;;5030317;28;20201;-75
2021/05/18 16:20:29;;;;;;;1.17;0.30;;;;;24.20;101238.00;;;;5030087;28;20193;-76
2021/05/18 16:22:56;;;;;;;0.63;0.35;;;;;24.10;101227.00;;;;5029103;28;20235;-77
2021/05/18 16:25:22;;;;;;;1.27;0.50;;;;;23.90;101222.00;;;;5027305;28;20204;-80
2021/05/18 16:30:53;;;;;;;1.70;0.47;;;;;23.60;101238.00;;;;5027490;28;20291;-77
2021/05/18 16:36:25;;;;;;;0.35;0.30;;;;;23.90;101238.00;;;;5012045;28;20207;-77
2021/05/18 16:39:11;;;;;;;1.15;0.40;;;;;23.80;101242.00;;;;5024149;28;20197;-78
2021/05/18 16:41:40;;;;;;;3.63;0.40;;;;;23.70;101246.00;;;;5011433;28;20216;-77
2021/05/18 16:47:11;;;;;;;1.00;0.40;;;;;23.30;101240.00;;;;5015991;28;20251;-77
2021/05/18 16:49:38;;;;;;;1.10;0.40;;;;;23.20;101253.00;;;;5014711;28;20671;-78
2021/05/18 16:52:05;;;;;;;0.80;0.40;;;;;23.10;101249.00;;;;5016839;28;20208;-76
2021/05/18 16:57:17;;;;;;;2.45;0.30;;;;;23.00;101240.00;;;;5018702;28;22011;-76
2021/05/18 17:00:02;;;;;;;1.95;0.30;;;;;22.90;101244.00;;;;5018161;28;20201;-79
2021/05/18 17:02:47;;;;;;;0.38;0.38;;;;;22.80;101250.00;;;;5021159;28;20225;-80
2021/05/18 17:05:34;;;;;;;0.52;0.30;;;;;22.90;101240.00;;;;5029305;28;20208;-79
2021/05/18 17:10:46;;;;;;;0.82;0.40;;;;;23.00;101247.00;;;;5009901;28;20258;-78
2021/05/18 17:15:57;;;;;;;0.52;0.40;;;;;22.90;101251.00;;;;5020567;28;20211;-78
2021/05/18 17:21:29;;;;;;;1.48;0.57;;;;;22.80;101242.00;;;;5017752;28;20216;-77
2021/05/18 17:24:15;;;;;;;1.13;0.32;;;;;23.30;101246.00;;;;5019026;28;20697;-78
2021/05/18 17:27:01;;;;;;;1.17;0.40;;;;;24.00;101255.00;;;;5014527;28;20205;-78
2021/05/18 17:32:13;;;;;;;1.20;0.30;;;;;24.80;101269.00;;;;5024124;28;20576;-77
2021/05/18 17:34:59;;;;;;;2.05;0.40;;;;;24.90;101267.00;;;;5017891;28;20251;-76
2021/05/18 17:37:26;;;;;;;1.42;0.50;;;;;24.80;101267.00;;;;5008611;28;20579;-78
2021/05/18 17:40:12;;;;;;;1.60;0.80;;;;;24.60;101273.00;;;;5018771;28;20248;-78
2021/05/18 17:42:41;;;;;;;0.73;0.40;;;;;24.40;101272.00;;;;5008441;28;20228;-77
2021/05/18 17:45:29;;;;;;;0.40;0.40;;;;;24.20;101278.00;;;;5009173;28;20251;-76
2021/05/18 17:48:14;;;;;;;1.33;0.45;;;;;23.90;101277.00;;;;4989590;28;20224;-77
2021/05/18 17:51:00;;;;;;;0.95;0.40;;;;;23.90;101288.00;;;;4988748;28;20205;-77
2021/05/18 17:53:46;;;;;;;0.68;0.50;;;;;23.50;101290.00;;;;4993027;28;20553;-77
2021/05/18 17:56:13;;;;;;;0.30;0.28;;;;;23.50;101292.00;;;;4998888;28;20213;-77
2021/05/18 18:04:47;;;;;;;1.00;0.38;;;;;22.70;101299.00;;;;4988158;28;20299;-77
2021/05/18 18:07:33;;;;;;;0.50;0.30;;;;;22.60;101298.00;;;;4989009;28;20220;-77
2021/05/18 18:10:02;;;;;;;0.60;0.30;;;;;22.40;101307.00;;;;4991806;28;20620;-77
2021/05/18 18:12:28;;;;;;;2.08;0.60;;;;;22.30;101300.00;;;;5006994;28;20221;-76
2021/05/18 18:17:59;;;;;;;1.48;0.40;;;;;21.80;101306.00;;;;4990151;28;20216;-76
2021/05/18 18:20:44;;;;;;;0.40;0.30;;;;;21.80;101313.00;;;;5003042;28;20962;-76
2021/05/18 18:26:16;;;;;;;0.55;0.25;;;;;21.50;101314.00;;;;5003840;28;20215;-77
2021/05/18 18:29:01;;;;;;;0.90;0.20;;;;;21.40;101313.00;;;;4993130;28;20252;-76
2021/05/18 18:32:05;;;;;;;0.80;0.50;;;;;21.10;101317.00;;;;5003006;28;20198;-76
2021/05/18 18:37:38;;;;;;;0.30;0.20;;;;;21.00;101321.00;;;;4995848;28;20220;-76
2021/05/18 18:40:06;;;;;;;3.55;0.50;;;;;20.90;101322.00;;;;5007746;28;20205;-75
2021/05/18 18:42:53;;;;;;;1.10;0.45;;;;;20.70;101321.00;;;;4976342;28;20562;-76
2021/05/18 18:45:20;;;;;;;1.85;0.40;;;;;20.70;101327.00;;;;4988687;28;20210;-76
2021/05/18 18:53:53;;;;;;;1.13;0.30;;;;;20.50;101324.00;;;;5011339;28;20282;-76
2021/05/18 18:56:57;;;;;;;0.98;0.32;;;;;20.20;101324.00;;;;5019340;28;20746;-76
2021/05/18 18:59:25;;;;;;;0.70;0.50;;;;;20.30;101327.00;;;;5022474;28;20662;-75
2021/05/18 19:04:40;;;;;;;0.65;0.20;;;;;20.10;101323.00;;;;5011993;28;20236;-75
2021/05/18 19:07:18;;;;;;;0.88;0.47;;;;;20.00;101325.00;;;;5011753;28;20534;-77
2021/05/18 19:10:12;;;;;;;0.93;0.30;;;;;19.90;101326.00;;;;5027713;28;20197;-75
2021/05/18 19:12:57;;;;;;;0.95;0.60;;;;;19.90;101327.00;;;;5019863;28;20209;-76
2021/05/18 19:21:32;;;;;;;0.57;0.30;;;;;19.50;101324.00;;;;5012551;28;20313;-75
2021/05/18 19:23:59;;;;;;;0.98;0.57;;;;;19.50;101326.00;;;;5017103;28;20694;-76
2021/05/18 19:32:14;;;;;;;1.10;0.35;;;;;19.30;101334.00;;;;5023714;28;20605;-76
2021/05/18 19:34:44;;;;;;;0.77;0.40;;;;;19.20;101334.00;;;;5018062;28;20204;-75
2021/05/18 19:37:19;;;;;;;1.75;0.50;;;;;19.10;101335.00;;;;5010207;28;20198;-76
2021/05/18 19:42:54;;;;;;;0.80;0.40;;;;;18.90;101340.00;;;;5022622;28;20207;-76
2021/05/18 19:45:53;;;;;;;1.35;0.30;;;;;18.70;101344.00;;;;5019977;28;20209;-76
2021/05/18 19:48:22;;;;;;;1.40;0.25;;;;;18.70;101357.00;;;;5022687;28;20205;-76
2021/05/18 19:50:49;;;;;;;1.15;0.50;;;;;18.70;101355.00;;;;5020903;28;20209;-76
2021/05/18 19:53:38;;;;;;;0.38;0.20;;;;;18.50;101361.00;;;;5012606;28;20252;-76
2021/05/18 19:56:27;;;;;;;1.38;0.40;;;;;18.50;101359.00;;;;5021056;28;20690;-75
2021/05/18 19:59:04;;;;;;;0.80;0.40;;;;;18.40;101359.00;;;;5019335;28;20193;-76
2021/05/18 20:17:08;;;;;;;0.85;0.50;;;;;17.70;101372.00;;;;5012658;28;20578;-77
2021/05/18 20:19:39;;;;;;;0.75;0.50;;;;;17.70;101375.00;;;;5015052;28;20221;-76
2021/05/18 20:22:24;;;;;;;0.90;0.50;;;;;17.60;101375.00;;;;5011952;28;20205;-76
2021/05/18 20:25:11;;;;;;;1.92;0.70;;;;;17.40;101383.00;;;;5023535;28;20220;-77
2021/05/18 20:27:38;;;;;;;4.88;0.57;;;;;17.50;101383.00;;;;5013545;28;20231;-76
2021/05/18 20:32:52;;;;;;;1.80;0.73;;;;;17.40;101383.00;;;;5010113;28;20243;-76
2021/05/18 20:35:30;;;;;;;1.45;0.70;;;;;17.30;101379.00;;;;5015264;28;20203;-75
2021/05/18 20:40:42;;;;;;;1.48;0.90;;;;;17.20;101378.00;;;;5024565;28;20215;-76
2021/05/18 20:43:28;;;;;;;1.33;0.95;;;;;17.00;101368.00;;;;5016894;28;20228;-76
2021/05/18 20:46:13;;;;;;;1.17;0.80;;;;;17.00;101372.00;;;;5020591;28;20224;-76
2021/05/18 20:48:40;;;;;;;2.67;0.90;;;;;17.00;101372.00;;;;5017329;28;20663;-75
2021/05/18 20:54:10;;;;;;;4.22;1.08;;;;;16.80;101380.00;;;;5024901;28;20271;-76
2021/05/18 20:57:15;;;;;;;0.98;0.73;;;;;16.70;101380.00;;;;5024291;28;20209;-76
2021/05/18 21:00:01;;;;;;;1.65;0.98;;;;;16.70;101383.00;;;;5010065;28;20201;-76
2021/05/18 21:03:05;;;;;;;1.08;0.98;;;;;16.60;101376.00;;;;5014681;28;20197;-76
2021/05/18 21:05:52;;;;;;;1.50;1.30;;;;;16.50;101379.00;;;;5014932;28;20213;-75
2021/05/18 21:08:42;;;;;;;2.13;1.05;;;;;16.60;101380.00;;;;5015744;28;20208;-75
2021/05/18 21:12:00;;;;;;;1.27;1.10;;;;;16.40;101377.00;;;;5008523;28;20201;-76
2021/05/18 21:20:16;;;;;;;1.58;1.02;;;;;16.40;101382.00;;;;5017131;28;20588;-76
2021/05/18 21:23:01;;;;;;;1.15;1.00;;;;;16.20;101379.00;;;;5016837;28;20224;-76
2021/05/18 21:28:32;;;;;;;1.55;1.00;;;;;16.20;101381.00;;;;5024456;28;20875;-77
2021/05/18 21:34:06;;;;;;;1.15;0.93;;;;;16.00;101385.00;;;;5017405;28;20756;-77
2021/05/18 21:36:33;;;;;;;1.60;1.00;;;;;16.10;101393.00;;;;5008185;28;20197;-77
2021/05/18 21:42:05;;;;;;;2.50;1.00;;;;;16.00;101391.00;;;;5016192;28;20215;-77
2021/05/18 21:47:17;;;;;;;1.45;0.93;;;;;15.90;101393.00;;;;5012778;28;20236;-77
2021/05/18 21:49:45;;;;;;;1.10;0.90;;;;;15.90;101387.00;;;;5009676;28;20204;-77
2021/05/18 21:52:12;;;;;;;1.35;1.00;;;;;15.80;101396.00;;;;5018912;28;20690;-77
2021/05/18 21:54:57;;;;;;;1.30;1.08;;;;;15.70;101396.00;;;;5013583;28;20529;-77